KADM/ADM METAR and TAF weather

Enter ICAO airport designator
Station Type Date Time Source
KADM METAR 2019/02/23 16:55 UTC NOAA

KADM 231655Z 24025G32KT 10SM CLR 15/02 A2974


Station Type Date Time Source
KADM Decoded METAR 2019/02/23 16:55 UTC NOAA

Ardmore, Ardmore Municipal Airport, OK, United States (KADM) 34-18-11N 097-01-10W
Feb 23, 2019 - 11:55 AM EST / 2019.02.23 1655 UTC
Wind: from the WSW (240 degrees) at 29 MPH (25 KT) gusting to 37 MPH (32 KT):0
Visibility: 10 mile(s):0
Sky conditions: clear
Temperature: 59 F (15 C)
Dew Point: 35 F (2 C)
Relative Humidity: 41%
Pressure (altimeter): 29.74 in. Hg (1007 hPa)
ob: KADM 231655Z 24025G32KT 10SM CLR 15/02 A2974
cycle: 17

Station Type Date Time Source
KADM TAF UTC NOAA

Error!


Example: see airport list